Aviation Digital Data Service (ADDS)

Output produced by METARs form (2019 UTC 03 July 2015)
found at http://aviationweather.gov/adds/metars/
 
KEKN 031752Z 0318/0418 13005KT P6SM VCSH OVC040 
     FM032000 09004KT 5SM SHRA BKN035 OVC060 
     TEMPO 0321/0323 3SM TSRA OVC015CB 
     FM040300 VRB03KT 3SM SHRA BR OVC020 
     FM040800 VRB03KT 2SM BR BKN008 
     FM041500 VRB03KT P6SM BKN015 
     FM041700 26004KT P6SM BKN020